Time;durP1;ratioP1;P1;durP2;ratioP2;P2;SDS_P1;SDS_P2;PMS_P1;PMS_P2;Temp;Humidity;BMP_temperature;BMP_pressure;BME280_temperature;BME280_humidity;BME280_pressure;Samples;Min_cycle;Max_cycle;Signal;HPM_P1;HPM_P2
2022/11/14 00:00:53;;;;;;;18.15;16.85;;;5.80;99.90;;;;;;4228405;28;20044;-85
2022/11/14 00:03:12;;;;;;;17.30;15.93;;;5.80;99.90;;;;;;4234535;28;20038;-85
2022/11/14 00:05:37;;;;;;;136.93;28.00;;;5.70;99.90;;;;;;4226789;28;20042;-86
2022/11/14 00:07:56;;;;;;;284.92;30.52;;;5.60;99.90;;;;;;4230479;28;20116;-85
2022/11/14 00:10:17;;;;;;;30.25;20.33;;;5.40;99.90;;;;;;4231266;28;20103;-86
2022/11/14 00:12:37;;;;;;;38.10;18.58;;;5.30;99.90;;;;;;4234976;28;20138;-86
2022/11/14 00:14:56;;;;;;;49.30;18.02;;;5.40;99.90;;;;;;4238534;28;20062;-86
2022/11/14 00:17:16;;;;;;;15.68;14.40;;;5.30;99.90;;;;;;4227866;28;20043;-86
2022/11/14 00:19:35;;;;;;;101.80;17.88;;;5.40;99.90;;;;;;4232297;28;20047;-85
2022/11/14 00:21:55;;;;;;;80.38;19.73;;;5.30;99.90;;;;;;4233194;28;20093;-85
2022/11/14 00:24:14;;;;;;;46.28;20.60;;;5.20;99.90;;;;;;4230487;28;20110;-85
2022/11/14 00:26:34;;;;;;;20.67;18.88;;;5.20;99.90;;;;;;4227292;28;20112;-86
2022/11/14 00:28:54;;;;;;;264.20;30.58;;;5.20;99.90;;;;;;4228623;28;20062;-86
2022/11/14 00:31:14;;;;;;;102.05;27.17;;;5.00;99.90;;;;;;4229935;28;20369;-86
2022/11/14 00:33:33;;;;;;;41.72;22.20;;;5.00;99.90;;;;;;4231596;28;20046;-85
2022/11/14 00:35:55;;;;;;;23.40;21.10;;;4.90;99.90;;;;;;4228182;28;20059;-85
2022/11/14 00:38:15;;;;;;;22.08;19.50;;;5.10;99.90;;;;;;4227513;28;20078;-85
2022/11/14 00:40:35;;;;;;;30.75;22.98;;;5.20;99.90;;;;;;4228040;28;20058;-86
2022/11/14 00:42:54;;;;;;;24.85;21.05;;;5.20;99.90;;;;;;4226104;28;20082;-86
2022/11/14 00:45:14;;;;;;;195.02;25.75;;;5.10;99.90;;;;;;4214266;28;20397;-85
2022/11/14 00:47:34;;;;;;;86.43;21.30;;;5.00;99.90;;;;;;4227796;28;20099;-85
2022/11/14 00:49:53;;;;;;;140.57;23.27;;;5.00;99.90;;;;;;4223682;28;20420;-85
2022/11/14 00:52:13;;;;;;;178.45;22.30;;;4.90;99.90;;;;;;4231873;28;20050;-85
2022/11/14 00:54:33;;;;;;;123.00;22.42;;;4.80;99.90;;;;;;4217186;28;20082;-85
2022/11/14 00:56:52;;;;;;;108.22;20.40;;;4.80;99.90;;;;;;4235784;28;20081;-85
2022/11/14 00:59:12;;;;;;;100.13;20.05;;;4.70;99.90;;;;;;4230214;28;20058;-85
2022/11/14 01:01:32;;;;;;;41.97;20.17;;;4.60;99.90;;;;;;4233720;28;20078;-85
2022/11/14 01:03:52;;;;;;;104.57;20.10;;;4.60;99.90;;;;;;4226928;28;20058;-85
2022/11/14 01:06:13;;;;;;;32.95;18.35;;;4.70;99.90;;;;;;4226188;28;20054;-86
2022/11/14 01:08:33;;;;;;;36.55;17.90;;;4.70;99.90;;;;;;4229496;28;20178;-84
2022/11/14 01:10:53;;;;;;;146.80;19.63;;;4.70;99.90;;;;;;4228836;28;20047;-85
2022/11/14 01:13:14;;;;;;;122.97;16.52;;;4.70;99.90;;;;;;4222019;28;20043;-85
2022/11/14 01:15:47;;;;;;;23.95;14.10;;;4.60;99.90;;;;;;4230446;28;20065;-85
2022/11/14 01:18:11;;;;;;;;;;;4.60;99.90;;;;;;4232163;28;20039;-85
2022/11/14 01:20:31;;;;;;;111.80;15.63;;;4.60;99.90;;;;;;4228635;28;20368;-85
2022/11/14 01:22:51;;;;;;;78.78;13.52;;;4.50;99.90;;;;;;4219662;28;20042;-85
2022/11/14 01:25:10;;;;;;;15.27;14.27;;;4.50;99.90;;;;;;4234156;28;20062;-85
2022/11/14 01:27:30;;;;;;;16.00;14.40;;;4.70;99.90;;;;;;4230618;28;20427;-85
2022/11/14 01:29:50;;;;;;;16.33;14.93;;;4.90;99.90;;;;;;4216303;28;20046;-85
2022/11/14 01:32:10;;;;;;;14.75;13.75;;;4.90;99.90;;;;;;4225821;28;20054;-85
2022/11/14 01:34:29;;;;;;;15.32;14.32;;;4.90;99.90;;;;;;4226990;28;20050;-85
2022/11/14 01:36:49;;;;;;;14.27;13.30;;;4.90;99.90;;;;;;4231725;28;20066;-85
2022/11/14 01:39:09;;;;;;;17.70;14.52;;;4.90;99.90;;;;;;4232043;28;20046;-85
2022/11/14 01:41:28;;;;;;;292.75;26.38;;;4.80;99.90;;;;;;4226143;28;20314;-85
2022/11/14 01:43:48;;;;;;;21.08;16.10;;;4.80;99.90;;;;;;4210810;28;20050;-85
2022/11/14 01:46:14;;;;;;;20.13;13.02;;;4.70;99.90;;;;;;4230713;28;20362;-85
2022/11/14 01:48:45;;;;;;;20.83;9.73;;;4.80;99.90;;;;;;4230462;28;20047;-86
2022/11/14 01:51:15;;;;;;;12.63;12.20;;;4.90;99.90;;;;;;4229362;28;20054;-85
2022/11/14 01:53:35;;;;;;;12.05;11.45;;;4.90;99.90;;;;;;4227369;28;20170;-85
2022/11/14 01:55:58;;;;;;;33.33;14.02;;;5.00;99.90;;;;;;4212349;28;20086;-85
2022/11/14 01:58:19;;;;;;;25.48;15.65;;;5.00;99.90;;;;;;4228410;28;20042;-85
2022/11/14 02:00:39;;;;;;;88.10;16.95;;;4.90;99.90;;;;;;4231955;28;20104;-85
2022/11/14 02:02:59;;;;;;;21.02;14.95;;;4.80;99.90;;;;;;4232810;28;20235;-85
2022/11/14 02:05:20;;;;;;;173.98;21.45;;;4.70;99.90;;;;;;4230968;28;20080;-85
2022/11/14 02:07:41;;;;;;;155.85;21.63;;;4.70;99.90;;;;;;4228847;28;20071;-85
2022/11/14 02:10:09;;;;;;;179.85;20.20;;;4.60;99.90;;;;;;4227086;28;20148;-85
2022/11/14 02:12:29;;;;;;;28.60;15.30;;;4.50;99.90;;;;;;4230882;28;20051;-85
2022/11/14 02:14:53;;;;;;;54.53;14.75;;;4.50;99.90;;;;;;4228838;28;20059;-85
2022/11/14 02:17:14;;;;;;;13.13;11.85;;;4.50;99.90;;;;;;4227589;28;20226;-86
2022/11/14 02:19:58;;;;;;;12.57;12.07;;;4.50;99.90;;;;;;4219363;28;20082;-85
2022/11/14 02:22:24;;;;;;;14.00;12.88;;;4.50;99.90;;;;;;4231753;28;20043;-85
2022/11/14 02:24:44;;;;;;;34.15;15.57;;;4.60;99.90;;;;;;4231877;28;20051;-85
2022/11/14 02:27:05;;;;;;;44.42;17.20;;;4.60;99.90;;;;;;4226786;28;20080;-86
2022/11/14 02:29:25;;;;;;;141.20;21.17;;;4.50;99.90;;;;;;4225995;28;20050;-85
2022/11/14 02:31:45;;;;;;;71.18;18.33;;;4.40;99.90;;;;;;4216490;28;20051;-85
2022/11/14 02:34:05;;;;;;;15.65;14.60;;;4.30;99.90;;;;;;4223579;28;20058;-86
2022/11/14 02:36:25;;;;;;;15.38;14.50;;;4.40;99.90;;;;;;4225220;28;20050;-85
2022/11/14 02:38:45;;;;;;;14.05;13.45;;;4.40;99.90;;;;;;4225570;28;20043;-85
2022/11/14 02:41:04;;;;;;;15.05;14.45;;;4.50;99.90;;;;;;4222764;28;20043;-85
2022/11/14 02:43:24;;;;;;;12.15;11.65;;;4.50;99.90;;;;;;4230351;28;20246;-85
2022/11/14 02:45:44;;;;;;;13.02;12.43;;;4.60;99.90;;;;;;4230961;28;20288;-85
2022/11/14 02:48:04;;;;;;;15.43;14.32;;;4.60;99.90;;;;;;4227275;28;20079;-85
2022/11/14 02:50:24;;;;;;;14.10;13.40;;;4.40;99.90;;;;;;4231620;28;20075;-85
2022/11/14 02:52:43;;;;;;;44.05;16.40;;;4.40;99.90;;;;;;4230337;28;20142;-85
2022/11/14 02:55:04;;;;;;;16.48;15.63;;;4.30;99.90;;;;;;4230077;28;20051;-85
2022/11/14 02:57:24;;;;;;;15.20;14.45;;;4.30;99.90;;;;;;4230900;28;20051;-85
2022/11/14 02:59:44;;;;;;;15.15;14.15;;;4.40;99.90;;;;;;4234343;28;20058;-85
2022/11/14 03:02:03;;;;;;;13.68;12.98;;;4.40;99.90;;;;;;4234750;28;20385;-85
2022/11/14 03:04:23;;;;;;;12.90;12.50;;;4.30;99.90;;;;;;4230667;28;20166;-85
2022/11/14 03:06:43;;;;;;;12.95;12.40;;;4.30;99.90;;;;;;4213789;28;20084;-85
2022/11/14 03:09:03;;;;;;;10.32;9.90;;;4.20;99.90;;;;;;4231168;28;20047;-86
2022/11/14 03:11:23;;;;;;;11.90;11.20;;;4.30;99.90;;;;;;4218253;28;20052;-85
2022/11/14 03:13:43;;;;;;;10.85;10.45;;;4.40;99.90;;;;;;4231043;28;20058;-85
2022/11/14 03:16:09;;;;;;;13.82;12.90;;;4.50;99.90;;;;;;4228182;28;20410;-85
2022/11/14 03:18:28;;;;;;;10.25;9.52;;;4.40;99.90;;;;;;4233305;28;20066;-85
2022/11/14 03:20:48;;;;;;;9.50;9.20;;;4.50;99.90;;;;;;4225196;28;20050;-85
2022/11/14 03:23:08;;;;;;;11.25;10.95;;;4.60;99.90;;;;;;4215185;28;20114;-85
2022/11/14 03:25:28;;;;;;;9.18;8.77;;;4.70;99.90;;;;;;4226237;28;20246;-85
2022/11/14 03:27:48;;;;;;;13.18;12.23;;;4.60;99.90;;;;;;4231009;28;20074;-85
2022/11/14 03:30:08;;;;;;;11.48;10.88;;;4.50;99.90;;;;;;4228934;28;20047;-85
2022/11/14 03:32:28;;;;;;;11.63;11.15;;;4.30;99.90;;;;;;4227262;28;20056;-85
2022/11/14 03:34:48;;;;;;;43.50;11.93;;;4.30;99.90;;;;;;4229047;28;20408;-85
2022/11/14 03:37:08;;;;;;;89.72;16.23;;;4.30;99.90;;;;;;4229468;28;20050;-85
2022/11/14 03:39:28;;;;;;;130.40;17.05;;;4.20;99.90;;;;;;4231855;28;20055;-85
2022/11/14 03:41:47;;;;;;;65.57;15.25;;;4.10;99.90;;;;;;4231337;28;20051;-85
2022/11/14 03:44:07;;;;;;;15.07;12.68;;;4.10;99.90;;;;;;4228226;28;20078;-85
2022/11/14 03:46:27;;;;;;;11.95;11.45;;;4.10;99.90;;;;;;4229476;28;20047;-85
2022/11/14 03:48:47;;;;;;;14.35;13.55;;;4.20;99.90;;;;;;4232650;28;20081;-85
2022/11/14 03:51:08;;;;;;;14.02;13.55;;;4.20;99.90;;;;;;4233760;28;20055;-86
2022/11/14 03:53:27;;;;;;;15.20;14.63;;;4.20;99.90;;;;;;4237501;28;20078;-85
2022/11/14 03:55:47;;;;;;;16.13;15.43;;;4.20;99.90;;;;;;4234574;28;20050;-85
2022/11/14 03:58:07;;;;;;;15.02;14.43;;;4.20;99.90;;;;;;4232371;28;20235;-85
2022/11/14 04:00:27;;;;;;;11.75;11.15;;;4.20;99.90;;;;;;4216709;28;20078;-85
2022/11/14 04:02:47;;;;;;;10.20;9.88;;;4.20;99.90;;;;;;4232481;28;20051;-85
2022/11/14 04:05:07;;;;;;;11.35;10.98;;;4.30;99.90;;;;;;4233555;28;20046;-85
2022/11/14 04:07:27;;;;;;;12.18;11.65;;;4.20;99.90;;;;;;4234333;28;20111;-85
2022/11/14 04:09:47;;;;;;;12.40;11.55;;;4.20;99.90;;;;;;4233916;28;20047;-85
2022/11/14 04:12:06;;;;;;;12.75;10.32;;;4.10;99.90;;;;;;4232569;28;20085;-86
2022/11/14 04:14:33;;;;;;;343.00;23.98;;;4.10;99.90;;;;;;4231868;28;20100;-85
2022/11/14 04:16:53;;;;;;;11.02;10.55;;;4.00;99.90;;;;;;4233705;28;20070;-85
2022/11/14 04:19:13;;;;;;;10.30;10.05;;;4.10;99.90;;;;;;4228159;28;20247;-85
2022/11/14 04:21:33;;;;;;;9.48;8.85;;;4.20;99.90;;;;;;4232469;28;20073;-85
2022/11/14 04:23:53;;;;;;;9.40;8.77;;;4.30;99.90;;;;;;4222617;28;20044;-85
2022/11/14 04:26:12;;;;;;;11.00;10.45;;;4.30;99.90;;;;;;4211869;28;20293;-86
2022/11/14 04:28:32;;;;;;;10.32;10.10;;;4.30;99.90;;;;;;4234636;28;20437;-85
2022/11/14 04:30:52;;;;;;;10.95;10.52;;;4.40;99.90;;;;;;4218686;28;20079;-85
2022/11/14 04:33:12;;;;;;;9.48;9.27;;;4.40;99.90;;;;;;4228845;28;20071;-85
2022/11/14 04:35:31;;;;;;;11.05;10.75;;;4.40;99.90;;;;;;4228185;28;20051;-85
2022/11/14 04:37:51;;;;;;;13.32;12.77;;;4.30;99.90;;;;;;4231093;28;20043;-85
2022/11/14 04:40:11;;;;;;;13.02;12.52;;;4.30;99.90;;;;;;4232701;28;20046;-85
2022/11/14 04:42:31;;;;;;;22.00;16.33;;;4.20;99.90;;;;;;4232099;28;20073;-86
2022/11/14 04:44:51;;;;;;;156.30;20.88;;;4.10;99.90;;;;;;4232281;28;20051;-86
2022/11/14 04:47:11;;;;;;;330.77;29.15;;;4.00;99.90;;;;;;4233440;28;20038;-86
2022/11/14 04:49:31;;;;;;;290.88;28.95;;;3.80;99.90;;;;;;4233752;28;20097;-85
2022/11/14 04:51:50;;;;;;;136.52;20.65;;;3.80;99.90;;;;;;4231722;28;20089;-86
2022/11/14 04:54:10;;;;;;;154.00;21.00;;;3.80;99.90;;;;;;4232157;28;20401;-85
2022/11/14 04:56:30;;;;;;;217.98;20.52;;;3.80;99.90;;;;;;4232079;28;20444;-85
2022/11/14 04:58:50;;;;;;;234.40;21.98;;;3.70;99.90;;;;;;4230936;28;20074;-85
2022/11/14 05:01:13;;;;;;;200.68;21.77;;;3.70;99.90;;;;;;4226463;28;20370;-85
2022/11/14 05:03:33;;;;;;;143.27;24.10;;;3.60;99.90;;;;;;4215366;28;20101;-85
2022/11/14 05:05:52;;;;;;;29.05;18.65;;;3.70;99.90;;;;;;4233554;28;20412;-84
2022/11/14 05:08:12;;;;;;;30.50;16.48;;;3.70;99.90;;;;;;4217122;28;20067;-85
2022/11/14 05:10:33;;;;;;;21.05;16.25;;;3.80;99.90;;;;;;4228432;28;20109;-85
2022/11/14 05:12:53;;;;;;;13.75;12.90;;;3.80;99.90;;;;;;4230658;28;20051;-85
2022/11/14 05:15:13;;;;;;;13.48;12.77;;;3.90;99.90;;;;;;4226977;28;20059;-85
2022/11/14 05:17:33;;;;;;;12.30;11.60;;;4.00;99.90;;;;;;4228036;28;20043;-86
2022/11/14 05:19:53;;;;;;;10.70;10.20;;;4.10;99.90;;;;;;4227027;28;20074;-85
2022/11/14 05:22:13;;;;;;;11.93;11.43;;;4.20;99.90;;;;;;4228099;28;20038;-85
2022/11/14 05:24:32;;;;;;;10.23;9.77;;;4.30;99.90;;;;;;4226669;28;20051;-86
2022/11/14 05:26:52;;;;;;;9.27;9.07;;;4.30;99.90;;;;;;4230861;28;20089;-86
2022/11/14 05:29:12;;;;;;;10.57;10.25;;;4.40;99.90;;;;;;4221388;28;20256;-86
2022/11/14 05:31:31;;;;;;;8.88;8.65;;;4.40;99.90;;;;;;4232117;28;20047;-85
2022/11/14 05:33:51;;;;;;;8.82;8.43;;;4.50;99.90;;;;;;4227697;28;20039;-85
2022/11/14 05:36:14;;;;;;;10.88;10.48;;;4.60;99.90;;;;;;4231999;28;20050;-85
2022/11/14 05:38:34;;;;;;;;;;;4.60;99.90;;;;;;4231726;28;20073;-85
2022/11/14 05:40:54;;;;;;;9.57;9.15;;;4.60;99.90;;;;;;4229939;28;20002;-85
2022/11/14 05:43:14;;;;;;;8.50;8.30;;;4.60;99.90;;;;;;4227770;28;20108;-85
2022/11/14 05:45:33;;;;;;;9.70;9.40;;;4.70;99.90;;;;;;4227209;28;20047;-85
2022/11/14 05:47:53;;;;;;;11.63;11.05;;;4.70;99.90;;;;;;4217446;28;20392;-85
2022/11/14 05:50:13;;;;;;;10.02;9.82;;;4.60;99.90;;;;;;4229773;28;20051;-85
2022/11/14 05:52:32;;;;;;;9.88;9.40;;;4.60;99.90;;;;;;4225078;28;20261;-86
2022/11/14 05:54:52;;;;;;;9.68;9.27;;;4.50;99.90;;;;;;4223024;28;20062;-85
2022/11/14 05:57:11;;;;;;;11.23;10.60;;;4.50;99.90;;;;;;4225078;28;20353;-85
2022/11/14 05:59:31;;;;;;;11.88;11.25;;;4.60;99.90;;;;;;4230216;28;20042;-85
2022/11/14 06:01:51;;;;;;;12.15;11.65;;;4.60;99.90;;;;;;4236221;28;20078;-85
2022/11/14 06:04:12;;;;;;;11.27;10.85;;;4.60;99.90;;;;;;4235345;28;20261;-86
2022/11/14 06:06:32;;;;;;;10.80;10.45;;;4.50;99.90;;;;;;4218141;28;20066;-85
2022/11/14 06:08:52;;;;;;;11.80;11.40;;;4.50;99.90;;;;;;4233396;28;20043;-85
2022/11/14 06:11:17;;;;;;;11.68;11.18;;;4.50;99.90;;;;;;4227985;28;20047;-85
2022/11/14 06:13:38;;;;;;;10.15;9.85;;;4.50;99.90;;;;;;4228178;28;20043;-85
2022/11/14 06:16:04;;;;;;;10.68;10.23;;;4.40;99.90;;;;;;4231410;28;20077;-86
2022/11/14 06:18:24;;;;;;;9.30;9.00;;;4.50;99.90;;;;;;4227152;28;20313;-85
2022/11/14 06:20:43;;;;;;;10.50;10.20;;;4.60;99.90;;;;;;4225676;28;20070;-85
2022/11/14 06:23:03;;;;;;;10.48;10.23;;;4.60;99.90;;;;;;4229580;28;20043;-85
2022/11/14 06:25:23;;;;;;;13.65;9.40;;;4.60;99.90;;;;;;4227792;28;20046;-85
2022/11/14 06:27:43;;;;;;;12.32;11.82;;;4.60;99.90;;;;;;4225825;28;20055;-86
2022/11/14 06:30:03;;;;;;;11.55;11.07;;;4.60;99.90;;;;;;4225788;28;20062;-86
2022/11/14 06:32:23;;;;;;;10.68;10.27;;;4.60;99.90;;;;;;4229386;28;20049;-86
2022/11/14 06:34:43;;;;;;;12.15;11.55;;;4.60;99.90;;;;;;4213729;28;20048;-86
2022/11/14 06:37:04;;;;;;;11.00;10.60;;;4.50;99.90;;;;;;4212078;28;20059;-86
2022/11/14 06:39:24;;;;;;;11.40;11.00;;;4.50;99.90;;;;;;4234195;28;20073;-86
2022/11/14 06:41:43;;;;;;;11.75;11.40;;;4.50;99.90;;;;;;4231512;28;20393;-86
2022/11/14 06:44:07;;;;;;;12.05;11.77;;;4.50;99.90;;;;;;4234415;28;20054;-87
2022/11/14 06:46:26;;;;;;;13.23;12.82;;;4.50;99.90;;;;;;4231362;28;20077;-86
2022/11/14 06:48:47;;;;;;;14.95;14.50;;;4.50;99.90;;;;;;4228508;28;20036;-86
2022/11/14 06:51:08;;;;;;;11.70;11.13;;;4.50;99.90;;;;;;4227250;28;20053;-85
2022/11/14 06:53:30;;;;;;;14.10;13.52;;;4.50;99.90;;;;;;4224144;28;20054;-86
2022/11/14 06:56:11;;;;;;;11.45;11.05;;;4.50;99.90;;;;;;4224155;28;20098;-85
2022/11/14 06:58:33;;;;;;;10.23;9.93;;;4.60;99.90;;;;;;4227151;28;20046;-86
2022/11/14 07:00:53;;;;;;;11.82;11.60;;;4.60;99.90;;;;;;4212768;28;20255;-86
2022/11/14 07:03:13;;;;;;;11.60;11.00;;;4.70;99.90;;;;;;4221387;28;20039;-86
2022/11/14 07:05:33;;;;;;;14.40;13.50;;;4.70;99.90;;;;;;4228537;28;20085;-86
2022/11/14 07:07:52;;;;;;;13.13;12.32;;;4.70;99.90;;;;;;4222386;28;20055;-86
2022/11/14 07:10:12;;;;;;;14.48;13.98;;;4.70;99.90;;;;;;4214392;28;20055;-86
2022/11/14 07:12:32;;;;;;;13.80;13.40;;;4.80;99.90;;;;;;4228630;28;20055;-86
2022/11/14 07:14:51;;;;;;;13.10;12.57;;;4.80;99.90;;;;;;4228422;28;20049;-86
2022/11/14 07:17:11;;;;;;;11.63;11.13;;;4.80;99.90;;;;;;4214568;28;20098;-86
2022/11/14 07:19:31;;;;;;;14.05;13.55;;;4.90;99.90;;;;;;4230408;28;20055;-86
2022/11/14 07:21:51;;;;;;;16.35;15.55;;;4.90;99.90;;;;;;4228661;28;20054;-86
2022/11/14 07:24:11;;;;;;;14.32;13.48;;;4.90;99.90;;;;;;4229771;28;20108;-86
2022/11/14 07:26:30;;;;;;;15.13;13.95;;;5.00;99.90;;;;;;4227765;28;20439;-85
2022/11/14 07:28:50;;;;;;;12.07;11.57;;;5.10;99.90;;;;;;4224312;28;20078;-85
2022/11/14 07:31:18;;;;;;;9.40;9.23;;;5.10;99.90;;;;;;4228117;28;20047;-86
2022/11/14 07:33:39;;;;;;;7.82;7.72;;;5.20;99.90;;;;;;4221360;28;20058;-86
2022/11/14 07:35:59;;;;;;;9.45;8.75;;;5.20;99.90;;;;;;4221489;28;20055;-86
2022/11/14 07:38:19;;;;;;;9.15;8.95;;;5.30;99.90;;;;;;4229001;28;20043;-86
2022/11/14 07:40:38;;;;;;;9.48;9.27;;;5.40;99.90;;;;;;4229039;28;20057;-86
2022/11/14 07:42:59;;;;;;;11.55;11.07;;;5.50;99.90;;;;;;4224052;28;20228;-86
2022/11/14 07:45:20;;;;;;;10.95;10.55;;;5.60;99.90;;;;;;4230187;28;20063;-86
2022/11/14 07:47:41;;;;;;;9.57;9.20;;;5.60;99.90;;;;;;4234523;28;20142;-86
2022/11/14 07:50:01;;;;;;;9.82;9.43;;;5.70;99.90;;;;;;4220842;28;20413;-86
2022/11/14 07:52:20;;;;;;;12.18;11.77;;;5.70;99.90;;;;;;4231960;28;20074;-86
2022/11/14 07:54:40;;;;;;;12.68;12.07;;;5.80;99.90;;;;;;4228766;28;20047;-86
2022/11/14 07:57:00;;;;;;;10.60;10.23;;;5.70;99.90;;;;;;4232433;28;20059;-86
2022/11/14 07:59:19;;;;;;;9.70;9.15;;;5.80;99.90;;;;;;4228420;28;20073;-86
2022/11/14 08:01:39;;;;;;;10.23;9.82;;;5.80;99.90;;;;;;4235176;28;20054;-86
2022/11/14 08:03:59;;;;;;;9.45;8.93;;;5.80;99.90;;;;;;4222677;28;20259;-86
2022/11/14 08:06:19;;;;;;;14.27;13.50;;;5.90;99.90;;;;;;4234781;28;20246;-86
2022/11/14 08:08:39;;;;;;;11.15;10.75;;;6.00;99.90;;;;;;4233718;28;20063;-86
2022/11/14 08:11:00;;;;;;;13.50;12.38;;;6.00;99.90;;;;;;4233944;28;20054;-86
2022/11/14 08:13:19;;;;;;;8.80;8.60;;;6.10;99.90;;;;;;4227155;28;20082;-86
2022/11/14 08:15:56;;;;;;;13.93;12.60;;;6.10;99.90;;;;;;4231435;28;20358;-86
2022/11/14 08:18:16;;;;;;;9.70;9.30;;;6.20;99.90;;;;;;4229081;28;20078;-86
2022/11/14 08:20:36;;;;;;;9.55;8.88;;;6.20;99.90;;;;;;4223459;28;20051;-86
2022/11/14 08:23:03;;;;;;;10.35;9.85;;;6.20;99.90;;;;;;4218492;28;20310;-86
2022/11/14 08:25:23;;;;;;;8.95;8.55;;;6.30;99.90;;;;;;4230357;28;20370;-86
2022/11/14 08:27:43;;;;;;;9.40;8.90;;;6.30;99.90;;;;;;4235464;28;20411;-86
2022/11/14 08:30:03;;;;;;;11.20;10.55;;;6.40;99.90;;;;;;4211523;28;20055;-86
2022/11/14 08:32:23;;;;;;;8.80;8.50;;;6.40;99.90;;;;;;4219453;28;20076;-86
2022/11/14 08:34:43;;;;;;;11.85;11.05;;;6.50;99.90;;;;;;4236446;28;20059;-86
2022/11/14 08:37:03;;;;;;;10.50;10.13;;;6.50;99.90;;;;;;4236138;28;20107;-86
2022/11/14 08:39:23;;;;;;;8.10;7.82;;;6.60;99.90;;;;;;4233843;28;20059;-86
2022/11/14 08:41:43;;;;;;;8.70;8.50;;;6.70;99.90;;;;;;4218227;28;20105;-86
2022/11/14 08:44:03;;;;;;;8.48;8.27;;;6.70;99.90;;;;;;4227886;28;20055;-86
2022/11/14 08:46:23;;;;;;;8.95;8.65;;;6.80;99.90;;;;;;4219486;28;20078;-86
2022/11/14 08:48:42;;;;;;;9.63;9.10;;;6.80;99.90;;;;;;4235676;28;20062;-86
2022/11/14 08:51:04;;;;;;;8.88;8.63;;;7.00;99.90;;;;;;4222565;28;20054;-86
2022/11/14 08:53:25;;;;;;;8.13;7.93;;;7.10;99.90;;;;;;4229019;28;20121;-86
2022/11/14 08:55:46;;;;;;;8.50;8.20;;;7.10;99.90;;;;;;4230507;28;20523;-86
2022/11/14 08:58:05;;;;;;;9.85;9.45;;;7.20;99.90;;;;;;4233581;28;20254;-87
2022/11/14 09:00:25;;;;;;;9.60;9.30;;;7.40;99.90;;;;;;4231046;28;20082;-85
2022/11/14 09:02:45;;;;;;;9.52;9.30;;;7.50;99.90;;;;;;4231914;28;20057;-86
2022/11/14 09:05:05;;;;;;;9.25;8.68;;;7.60;99.90;;;;;;4218314;28;20112;-86
2022/11/14 09:07:25;;;;;;;8.25;8.05;;;7.60;99.90;;;;;;4232064;28;20254;-86
2022/11/14 09:09:45;;;;;;;9.90;9.30;;;7.70;99.90;;;;;;4230960;28;20392;-86
2022/11/14 09:12:05;;;;;;;18.80;16.60;;;7.80;99.90;;;;;;4231991;28;20046;-86
2022/11/14 09:14:25;;;;;;;16.10;14.65;;;7.90;99.90;;;;;;4230653;28;20061;-86
2022/11/14 09:16:47;;;;;;;20.00;18.25;;;8.00;99.90;;;;;;4230668;28;20117;-86
2022/11/14 09:19:07;;;;;;;19.67;17.87;;;8.00;99.90;;;;;;4231675;28;20058;-86
2022/11/14 09:21:26;;;;;;;21.10;18.75;;;7.90;99.90;;;;;;4232291;28;20115;-86
2022/11/14 09:23:46;;;;;;;16.17;14.55;;;7.90;99.90;;;;;;4227759;28;20046;-86
2022/11/14 09:26:08;;;;;;;13.90;13.00;;;7.80;99.90;;;;;;4229377;28;20388;-86
2022/11/14 09:28:28;;;;;;;10.65;9.93;;;7.80;99.90;;;;;;4228390;28;20108;-86
2022/11/14 09:30:47;;;;;;;14.35;13.52;;;7.70;99.90;;;;;;4227720;28;20111;-86
2022/11/14 09:33:08;;;;;;;16.02;14.73;;;7.60;99.90;;;;;;4224729;28;20094;-86
2022/11/14 09:35:32;;;;;;;16.10;14.90;;;7.60;99.90;;;;;;4221770;28;20061;-86
2022/11/14 09:38:18;;;;;;;12.55;11.75;;;7.60;99.90;;;;;;4234195;28;20074;-86
2022/11/14 09:41:22;;;;;;;13.52;12.52;;;7.60;99.90;;;;;;4228314;28;20239;-86
2022/11/14 09:44:00;;;;;;;11.23;10.55;;;7.70;99.90;;;;;;4164377;28;20052;-86
2022/11/14 09:46:43;;;;;;;13.85;12.85;;;7.70;99.90;;;;;;4149137;28;20100;-86
2022/11/14 09:49:16;;;;;;;14.27;13.27;;;7.70;99.90;;;;;;4160015;28;20322;-86
2022/11/14 09:51:46;;;;;;;13.50;12.80;;;7.80;99.90;;;;;;4162269;28;20060;-86
2022/11/14 09:54:06;;;;;;;13.35;12.15;;;7.80;99.90;;;;;;4162362;28;20057;-86
2022/11/14 09:56:26;;;;;;;11.70;11.10;;;7.90;99.90;;;;;;4162600;28;20156;-86
2022/11/14 09:58:46;;;;;;;11.82;10.93;;;7.90;99.90;;;;;;4162191;28;20097;-86
2022/11/14 10:01:16;;;;;;;16.20;14.93;;;8.00;99.90;;;;;;4164685;28;20064;-86
2022/11/14 10:03:49;;;;;;;15.02;14.02;;;8.10;99.90;;;;;;4165482;28;20060;-86
2022/11/14 10:06:23;;;;;;;9.85;9.40;;;8.10;99.90;;;;;;4163756;28;20068;-86
2022/11/14 10:09:24;;;;;;;10.38;9.77;;;8.10;99.90;;;;;;4163574;28;20113;-86
2022/11/14 10:12:04;;;;;;;10.05;9.65;;;8.10;99.90;;;;;;4157016;28;20056;-86
2022/11/14 10:15:08;;;;;;;9.20;8.90;;;8.10;99.90;;;;;;4163575;28;20160;-86
2022/11/14 10:17:49;;;;;;;7.90;7.35;;;8.10;99.90;;;;;;4133891;28;20380;-86
2022/11/14 10:20:30;;;;;;;9.55;9.15;;;8.20;99.90;;;;;;4186534;28;20365;-86
2022/11/14 10:23:44;;;;;;;9.40;8.95;;;8.30;99.90;;;;;;4225433;28;20051;-86
2022/11/14 10:26:25;;;;;;;9.10;8.75;;;8.40;99.90;;;;;;4225088;28;20042;-86
2022/11/14 10:28:54;;;;;;;7.68;7.40;;;8.40;99.90;;;;;;4226386;28;20054;-86
2022/11/14 10:31:38;;;;;;;8.23;8.00;;;8.50;99.90;;;;;;4228449;28;20047;-86
2022/11/14 10:34:03;;;;;;;8.00;7.45;;;8.70;99.90;;;;;;4213710;28;20255;-86
2022/11/14 10:36:49;;;;;;;9.65;8.82;;;8.70;99.90;;;;;;4232654;28;20244;-86
2022/11/14 10:39:18;;;;;;;8.75;8.35;;;8.80;99.90;;;;;;4227416;28;20051;-86
2022/11/14 10:41:39;;;;;;;8.98;8.73;;;8.90;99.90;;;;;;4225076;28;20054;-86
2022/11/14 10:44:25;;;;;;;11.48;10.77;;;9.00;99.90;;;;;;4220890;28;20403;-86
2022/11/14 10:46:51;;;;;;;8.93;8.50;;;9.10;99.90;;;;;;4229942;28;20046;-86
2022/11/14 10:49:20;;;;;;;8.10;7.50;;;9.10;99.90;;;;;;4225547;28;20047;-86
2022/11/14 10:51:45;;;;;;;12.18;11.27;;;9.10;99.90;;;;;;4228389;28;20065;-86
2022/11/14 10:54:08;;;;;;;11.10;10.10;;;9.20;99.90;;;;;;4228350;28;20077;-86
2022/11/14 10:56:28;;;;;;;7.63;7.43;;;9.30;99.90;;;;;;4229390;28;20079;-86
2022/11/14 10:58:48;;;;;;;7.93;7.72;;;9.40;99.90;;;;;;4210531;28;20055;-87
2022/11/14 11:01:34;;;;;;;6.70;6.50;;;9.50;99.90;;;;;;4229984;28;20082;-86
2022/11/14 11:03:54;;;;;;;8.13;7.82;;;9.60;99.90;;;;;;4220815;28;20035;-87
2022/11/14 11:06:25;;;;;;;5.90;5.80;;;9.80;99.90;;;;;;4228451;28;20277;-87
2022/11/14 11:11:31;;;;;;;6.60;6.38;;;10.10;99.90;;;;;;4231010;28;20097;-87
2022/11/14 11:13:57;;;;;;;7.18;6.97;;;10.20;99.90;;;;;;4228725;28;20234;-87
2022/11/14 11:16:21;;;;;;;5.82;5.72;;;10.30;99.90;;;;;;4232822;28;20076;-87
2022/11/14 11:18:40;;;;;;;8.73;8.40;;;10.50;99.90;;;;;;4223283;28;20267;-86
2022/11/14 11:21:05;;;;;;;9.52;8.98;;;10.60;99.90;;;;;;4235001;28;20043;-87
2022/11/14 11:23:26;;;;;;;7.28;6.97;;;10.70;99.90;;;;;;4218471;28;20075;-86
2022/11/14 11:26:14;;;;;;;6.35;6.15;;;10.90;99.90;;;;;;4234271;28;20051;-87
2022/11/14 11:28:36;;;;;;;18.38;16.80;;;10.90;99.90;;;;;;4229160;28;20101;-87
2022/11/14 11:30:58;;;;;;;10.23;9.55;;;11.00;99.90;;;;;;4233881;28;20075;-86
2022/11/14 11:33:22;;;;;;;7.97;7.57;;;11.00;99.90;;;;;;4234019;28;20046;-86
2022/11/14 11:35:44;;;;;;;10.32;9.48;;;11.00;99.90;;;;;;4222081;28;20269;-86
2022/11/14 11:38:04;;;;;;;9.10;8.60;;;11.10;99.90;;;;;;4229565;28;20243;-86
2022/11/14 11:40:28;;;;;;;6.82;6.53;;;11.10;99.90;;;;;;4228600;28;20051;-86
2022/11/14 11:42:56;;;;;;;5.05;4.85;;;11.10;99.90;;;;;;4231884;28;20085;-86
2022/11/14 11:45:38;;;;;;;2.03;1.92;;;11.30;99.90;;;;;;4222042;28;20281;-86
2022/11/14 11:48:20;;;;;;;2.30;2.30;;;11.40;99.90;;;;;;4230988;28;20134;-86
2022/11/14 11:50:40;;;;;;;2.20;2.20;;;11.50;99.90;;;;;;4223412;28;20047;-83
2022/11/14 11:53:17;;;;;;;2.25;2.25;;;11.50;99.90;;;;;;4229286;28;20075;-83
2022/11/14 11:55:43;;;;;;;2.80;2.70;;;11.50;99.90;;;;;;4213115;28;20381;-83
2022/11/14 11:58:11;;;;;;;2.28;2.17;;;11.60;99.90;;;;;;4231810;28;20039;-84
2022/11/14 12:00:32;;;;;;;2.78;2.78;;;11.60;99.90;;;;;;4226958;28;20048;-83
2022/11/14 12:02:53;;;;;;;2.25;2.25;;;11.60;99.90;;;;;;4229907;28;20085;-83
2022/11/14 12:05:23;;;;;;;3.15;2.90;;;11.70;99.90;;;;;;4230571;28;20039;-84
2022/11/14 12:08:08;;;;;;;4.88;1.85;;;11.70;99.90;;;;;;4232693;28;20047;-83
2022/11/14 12:10:31;;;;;;;1.90;1.90;;;11.70;99.90;;;;;;4231199;28;20035;-83
2022/11/14 12:12:54;;;;;;;;;;;11.70;99.90;;;;;;4230425;28;20054;-83
2022/11/14 12:15:43;;;;;;;4.35;4.25;;;11.70;99.90;;;;;;4231446;28;19922;-83
2022/11/14 12:18:21;;;;;;;4.05;3.95;;;11.80;99.90;;;;;;4232713;28;20055;-83
2022/11/14 12:20:50;;;;;;;5.75;5.55;;;11.70;99.90;;;;;;4231115;28;20050;-83
2022/11/14 12:23:22;;;;;;;3.85;3.75;;;11.80;99.90;;;;;;4231392;28;20266;-83